Chino Valley, AZ (86323)

7:04 PM MST on August 29, 2015 (GMT -0700)
Chino Valley W Rd 3 N | | Change Station
CLOSE
Current Station
Personal Weather Station
Location: Chino Valley, AZ
Elevation: 4678 ft
Nearby Weather Stations
Active Advisory: Areal Flood Advisory

Elev 4678 ft 34.78 °N, 112.49 °W | Updated 2 minutes ago

Partly Cloudy
Partly Cloudy
78.6 °F
Feels Like 80 °F
N
0.0
Wind Variable Wind from SSE
Gusts 0.0 mph

Today
High -- | Low -- °F
--% Chance of Precip.
Yesterday
High -- | Low -- °F
Precip. -- in
6:00 AM 7:00 PM
Full, 100% visible
Pressure 29.90 in
Visibility 10.0 miles
Clouds Scattered Clouds 7000 ft
Heat Index 80 °F
Dew Point 58 °F
Humidity 49%
Rainfall 0.00 in
Snow Depth Not available.
UV 0.0 out of 12
Pollen 6.10 out of 12
Air Quality Not available.
Flu Activity Not available.
METAR KPRC 300153Z 07003KT 10SM SCT070 24/14 A3013 RMK AO2 SLP124 TCU DSNT S-SW T02440144 $
Pressure 29.90 in
Visibility 10.0 miles
Clouds Scattered Clouds 7000 ft
Heat Index 80 °F
Dew Point 58 °F
Humidity 49%
Rainfall 0.00 in
Snow Depth Not available.
UV 0.0 out of 12
Pollen 6.10 out of 12
Air Quality Not available.
Flu Activity Not available.
METAR KPRC 300153Z 07003KT 10SM SCT070 24/14 A3013 RMK AO2 SLP124 TCU DSNT S-SW T02440144 $

10-Day Weather Forecast

×

Almanac

Astronomy

Aug. 29, 2015 Rise Set
Actual Time
Civil Twilight
Nautical Twilight
Astronomical Twilight
Moon
Length of Visible Light
Length of Day
Tomorrow will be .
, % of the Moon is Illuminated

Today's Extremes

State Highs State Lows

Community

WunderPhotos

Upload Photos

1,850,847 photos uploaded!

WunderBlogs® & News

Nearby

Air Quality

  Air Quality AQ Index Pollutant
Not available.

Snow Depth

Station Depth Elevation

Earthquake Activity

City Distance Mag. Time & Date
Minimum magnitude displayed is 2.5.

Coastal Water Temperatures

Place Temperature

Stations

Nearby Weather Stations

Station Location Temp. Windchill Dew Point Humidity Wind Precip. Elev Updated Type
                   
Areal Flood Advisory
Statement as of 5:36 PM MDT on August 29, 2015

The National Weather Service in Flagstaff has issued a

* small stream Flood Advisory for...
southeastern Yavapai County in west central Arizona...

* until 730 PM MST

* at 534 PM MST... Doppler radar indicated heavy rain due to
thunderstorms in the area of Horseshoe Reservoir. This will cause
some flooding of washes across this rural area.

Precautionary/preparedness actions...

Do not drive your vehicle into areas where the water covers the
roadway. The water depth may be too great to allow your car to cross
safely. Move to higher ground.


Lat... Lon 3401 11184 3406 11186 3414 11191 3416 11181
      3412 11173 3406 11167 3400 11162


McCollum